createdAt,value
2018-03-22T00:00:48.630Z,-1.87
2018-03-22T00:01:48.654Z,-1.85
2018-03-22T00:02:48.676Z,-1.88
2018-03-22T00:03:48.699Z,-1.88
2018-03-22T00:04:48.724Z,-2.03
2018-03-22T00:05:48.747Z,-2.00
2018-03-22T00:06:48.771Z,-2.00
2018-03-22T00:07:48.794Z,-1.92
2018-03-22T00:08:48.817Z,-1.98
2018-03-22T00:09:48.841Z,-1.98
2018-03-22T00:10:48.864Z,-2.02
2018-03-22T00:11:48.937Z,-1.88
2018-03-22T00:12:48.911Z,-1.87
2018-03-22T00:13:48.935Z,-1.82
2018-03-22T00:14:48.959Z,-1.92
2018-03-22T00:15:48.981Z,-1.90
2018-03-22T00:16:49.006Z,-2.06
2018-03-22T00:17:49.028Z,-2.05
2018-03-22T00:18:49.054Z,-1.94
2018-03-22T00:19:49.075Z,-1.95
2018-03-22T00:20:49.096Z,-1.98
2018-03-22T00:21:49.126Z,-1.88
2018-03-22T00:22:49.144Z,-1.88
2018-03-22T00:23:49.168Z,-1.88
2018-03-22T00:24:49.192Z,-1.76
2018-03-22T00:25:49.215Z,-1.82
2018-03-22T00:26:49.238Z,-1.87
2018-03-22T00:27:49.262Z,-1.88
2018-03-22T00:28:49.285Z,-1.91
2018-03-22T00:29:49.309Z,-1.82
2018-03-22T00:30:49.331Z,-1.88
2018-03-22T00:31:49.355Z,-1.79
2018-03-22T00:32:49.379Z,-1.84
2018-03-22T00:33:49.401Z,-1.84
2018-03-22T00:34:49.423Z,-1.88
2018-03-22T00:35:49.446Z,-1.97
2018-03-22T00:36:49.470Z,-1.94
2018-03-22T00:37:49.499Z,-2.05
2018-03-22T00:38:49.516Z,-2.10
2018-03-22T00:39:49.539Z,-2.06
2018-03-22T00:40:49.563Z,-2.06
2018-03-22T00:41:49.591Z,-2.09
2018-03-22T00:42:49.608Z,-2.16
2018-03-22T00:43:49.635Z,-2.13
2018-03-22T00:44:49.656Z,-2.12
2018-03-22T00:45:49.681Z,-2.15
2018-03-22T00:46:49.703Z,-2.03
2018-03-22T00:47:49.727Z,-2.13
2018-03-22T00:48:49.752Z,-2.03
2018-03-22T00:49:49.774Z,-2.06
2018-03-22T00:50:49.797Z,-2.08
2018-03-22T00:51:49.820Z,-2.00
2018-03-22T00:52:49.844Z,-2.00
2018-03-22T00:53:49.867Z,-2.03
2018-03-22T00:54:49.890Z,-1.94
2018-03-22T00:55:49.914Z,-2.03
2018-03-22T00:56:49.938Z,-1.92
2018-03-22T00:57:49.962Z,-1.95
2018-03-22T00:58:49.984Z,-1.88
2018-03-22T00:59:50.009Z,-1.88
2018-03-22T01:00:50.032Z,-1.88
2018-03-22T01:01:50.068Z,-1.85
2018-03-22T01:02:50.078Z,-1.88
2018-03-22T01:03:50.101Z,-1.90
2018-03-22T01:04:50.127Z,-1.84
2018-03-22T01:05:50.150Z,-1.79
2018-03-22T01:06:50.172Z,-1.90
2018-03-22T01:07:50.197Z,-1.70
2018-03-22T01:08:50.224Z,-1.76
2018-03-22T01:09:50.244Z,-1.64
2018-03-22T01:10:50.267Z,-1.76
2018-03-22T01:11:50.292Z,-1.74
2018-03-22T01:12:50.315Z,-1.76
2018-03-22T01:13:50.338Z,-1.76
2018-03-22T01:14:50.361Z,-1.76
2018-03-22T01:15:50.385Z,-1.67
2018-03-22T01:16:50.408Z,-1.72
2018-03-22T01:17:50.432Z,-1.66
2018-03-22T01:18:50.454Z,-1.67
2018-03-22T01:19:50.479Z,-1.58
2018-03-22T01:20:50.507Z,-1.54
2018-03-22T01:21:50.526Z,-1.43
2018-03-22T01:22:50.551Z,-1.52
2018-03-22T01:23:50.573Z,-1.55
2018-03-22T01:24:50.597Z,-1.54
2018-03-22T01:25:50.620Z,-1.54
2018-03-22T01:26:50.643Z,-1.46
2018-03-22T01:27:50.667Z,-1.38
2018-03-22T01:28:50.690Z,-1.45
2018-03-22T01:29:50.714Z,-1.37
2018-03-22T01:30:50.735Z,-1.45
2018-03-22T01:31:50.760Z,-1.41
2018-03-22T01:32:50.784Z,-1.40
2018-03-22T01:33:50.809Z,-1.52
2018-03-22T01:34:50.830Z,-1.49
2018-03-22T01:35:50.854Z,-1.49
2018-03-22T01:36:50.879Z,-1.62
2018-03-22T01:37:50.902Z,-1.70
2018-03-22T01:38:50.925Z,-1.73
2018-03-22T01:39:50.946Z,-1.76
2018-03-22T01:40:50.971Z,-1.74
2018-03-22T01:41:50.995Z,-1.69
2018-03-22T01:42:51.018Z,-1.73
2018-03-22T01:43:51.046Z,-1.90
2018-03-22T01:44:51.064Z,-2.00
2018-03-22T01:45:51.088Z,-1.92
2018-03-22T01:46:51.110Z,-2.15
2018-03-22T01:47:51.135Z,-2.15
2018-03-22T01:48:51.157Z,-2.10
2018-03-22T01:49:51.181Z,-2.20
2018-03-22T01:50:51.203Z,-2.20
2018-03-22T01:51:51.227Z,-2.20
2018-03-22T01:52:51.251Z,-2.23
2018-03-22T01:53:51.273Z,-2.27
2018-03-22T01:54:51.297Z,-2.20
2018-03-22T01:55:51.320Z,-2.20
2018-03-22T01:56:51.345Z,-2.16
2018-03-22T01:57:51.369Z,-2.30
2018-03-22T01:58:51.389Z,-2.29
2018-03-22T01:59:51.413Z,-2.20
2018-03-22T02:00:51.437Z,-2.23
2018-03-22T02:01:51.470Z,-2.10
2018-03-22T02:02:51.482Z,-2.21
2018-03-22T02:03:51.506Z,-2.05
2018-03-22T02:04:51.530Z,-2.12
2018-03-22T02:05:51.553Z,-2.16
2018-03-22T02:06:51.576Z,-2.26
2018-03-22T02:07:51.598Z,-2.27
2018-03-22T02:08:51.622Z,-2.40
2018-03-22T02:09:51.646Z,-2.43
2018-03-22T02:10:51.669Z,-2.40
2018-03-22T02:11:51.692Z,-2.32
2018-03-22T02:12:51.714Z,-2.34
2018-03-22T02:13:51.741Z,-2.34
2018-03-22T02:14:51.761Z,-2.27
2018-03-22T02:15:51.783Z,-2.45
2018-03-22T02:16:51.806Z,-2.40
2018-03-22T02:17:51.830Z,-2.48
2018-03-22T02:18:51.854Z,-2.42
2018-03-22T02:19:51.878Z,-2.46
2018-03-22T02:20:51.903Z,-2.49
2018-03-22T02:21:51.923Z,-2.50
2018-03-22T02:22:51.946Z,-2.45
2018-03-22T02:23:51.968Z,-2.46
2018-03-22T02:24:51.991Z,-2.32
2018-03-22T02:25:52.016Z,-2.26
2018-03-22T02:26:52.037Z,-2.16
2018-03-22T02:27:52.062Z,-2.18
2018-03-22T02:28:52.084Z,-2.24
2018-03-22T02:29:52.107Z,-2.15
2018-03-22T02:30:52.130Z,-2.13
2018-03-22T02:31:52.154Z,-2.08
2018-03-22T02:32:52.180Z,-2.16
2018-03-22T02:33:52.199Z,-2.12
2018-03-22T02:34:52.222Z,-2.05
2018-03-22T02:35:52.246Z,-2.06
2018-03-22T02:36:52.268Z,-2.12
2018-03-22T02:37:52.293Z,-2.08
2018-03-22T02:38:52.316Z,-2.09
2018-03-22T02:39:52.337Z,-1.98
2018-03-22T02:40:52.361Z,-2.02
2018-03-22T02:41:52.384Z,-1.98
2018-03-22T02:42:52.409Z,-2.09
2018-03-22T02:43:52.428Z,-2.06
2018-03-22T02:44:52.453Z,-2.08
2018-03-22T02:45:52.475Z,-2.15
2018-03-22T02:46:52.514Z,-2.23
2018-03-22T02:47:52.519Z,-2.23
2018-03-22T02:48:52.544Z,-2.12
2018-03-22T02:49:52.566Z,-2.00
2018-03-22T02:50:52.588Z,-2.09
2018-03-22T02:51:52.622Z,-2.09
2018-03-22T02:52:52.634Z,-2.00
2018-03-22T02:53:52.656Z,-2.06
2018-03-22T02:54:52.679Z,-2.02
2018-03-22T02:55:52.704Z,-2.03
2018-03-22T02:56:52.725Z,-2.06
2018-03-22T02:57:52.750Z,-2.05
2018-03-22T02:58:52.771Z,-2.13
2018-03-22T02:59:52.793Z,-2.13
2018-03-22T03:00:52.817Z,-2.12
2018-03-22T03:01:52.838Z,-2.13
2018-03-22T03:02:52.861Z,-2.12
2018-03-22T03:03:52.884Z,-2.15
2018-03-22T03:04:52.906Z,-2.13
2018-03-22T03:05:52.932Z,-2.15
2018-03-22T03:06:52.952Z,-2.26
2018-03-22T03:07:52.975Z,-2.45
2018-03-22T03:08:52.998Z,-2.52
2018-03-22T03:09:53.021Z,-2.61
2018-03-22T03:10:53.043Z,-2.66
2018-03-22T03:11:53.065Z,-2.71
2018-03-22T03:12:53.089Z,-2.79
2018-03-22T03:13:53.111Z,-2.77
2018-03-22T03:14:53.134Z,-2.92
2018-03-22T03:15:53.158Z,-2.88
2018-03-22T03:16:53.180Z,-2.88
2018-03-22T03:17:53.202Z,-2.99
2018-03-22T03:18:53.229Z,-2.96
2018-03-22T03:19:53.248Z,-2.92
2018-03-22T03:20:53.271Z,-2.85
2018-03-22T03:21:53.293Z,-2.96
2018-03-22T03:22:53.314Z,-2.89
2018-03-22T03:23:53.338Z,-2.96
2018-03-22T03:24:53.364Z,-2.74
2018-03-22T03:25:53.384Z,-2.67
2018-03-22T03:26:53.413Z,-2.58
2018-03-22T03:27:53.430Z,-2.46
2018-03-22T03:28:53.455Z,-2.52
2018-03-22T03:29:53.475Z,-2.53
2018-03-22T03:30:53.498Z,-2.55
2018-03-22T03:31:53.522Z,-2.56
2018-03-22T03:32:53.543Z,-2.52
2018-03-22T03:33:53.565Z,-2.55
2018-03-22T03:34:54.758Z,-2.73
2018-03-22T03:35:53.613Z,-2.77
2018-03-22T03:36:53.632Z,-2.82
2018-03-22T03:37:53.657Z,-2.92
2018-03-22T03:38:53.678Z,-2.89
2018-03-22T03:39:53.702Z,-2.91
2018-03-22T03:40:53.725Z,-2.84
2018-03-22T03:41:53.747Z,-2.73
2018-03-22T03:42:53.769Z,-2.63
2018-03-22T03:43:53.798Z,-2.64
2018-03-22T03:44:53.815Z,-2.60
2018-03-22T03:45:53.838Z,-2.55
2018-03-22T03:46:53.864Z,-2.50
2018-03-22T03:47:53.884Z,-2.55
2018-03-22T03:48:53.906Z,-2.63
2018-03-22T03:49:53.930Z,-2.77
2018-03-22T03:50:53.951Z,-2.78
2018-03-22T03:51:53.975Z,-2.82
2018-03-22T03:52:53.998Z,-2.89
2018-03-22T03:53:54.022Z,-2.88
2018-03-22T03:54:54.042Z,-2.91
2018-03-22T03:55:54.065Z,-2.91
2018-03-22T03:56:54.091Z,-2.91
2018-03-22T03:57:54.111Z,-2.86
2018-03-22T03:58:54.133Z,-2.99
2018-03-22T03:59:54.159Z,-3.02
2018-03-22T04:00:54.178Z,-2.94
2018-03-22T04:01:54.201Z,-2.97
2018-03-22T04:02:54.224Z,-3.00
2018-03-22T04:03:54.247Z,-2.99
2018-03-22T04:04:54.269Z,-2.86
2018-03-22T04:05:54.292Z,-2.91
2018-03-22T04:06:54.314Z,-2.86
2018-03-22T04:07:54.338Z,-3.02
2018-03-22T04:08:54.362Z,-3.00
2018-03-22T04:09:54.386Z,-2.91
2018-03-22T04:10:54.406Z,-2.96
2018-03-22T04:11:54.428Z,-3.00
2018-03-22T04:12:54.450Z,-3.03
2018-03-22T04:13:54.474Z,-2.99
2018-03-22T04:14:54.495Z,-3.00
2018-03-22T04:15:54.518Z,-3.03
2018-03-22T04:16:54.540Z,-3.03
2018-03-22T04:17:54.564Z,-2.88
2018-03-22T04:18:54.586Z,-3.00
2018-03-22T04:19:54.609Z,-2.89
2018-03-22T04:20:54.634Z,-2.73
2018-03-22T04:21:54.653Z,-2.81
2018-03-22T04:22:54.678Z,-2.84
2018-03-22T04:23:54.699Z,-2.85
2018-03-22T04:24:54.721Z,-2.91
2018-03-22T04:25:54.744Z,-2.96
2018-03-22T04:26:54.807Z,-3.07
2018-03-22T04:27:54.790Z,-2.97
2018-03-22T04:28:54.813Z,-3.10
2018-03-22T04:29:54.835Z,-3.14
2018-03-22T04:30:54.858Z,-3.14
2018-03-22T04:31:54.879Z,-3.09
2018-03-22T04:32:54.901Z,-3.09
2018-03-22T04:33:54.928Z,-3.00
2018-03-22T04:34:54.946Z,-2.92
2018-03-22T04:35:54.969Z,-2.91
2018-03-22T04:36:54.992Z,-2.86
2018-03-22T04:37:55.015Z,-2.82
2018-03-22T04:38:55.036Z,-2.81
2018-03-22T04:39:55.061Z,-2.96
2018-03-22T04:40:55.083Z,-2.91
2018-03-22T04:41:55.106Z,-2.96
2018-03-22T04:42:55.127Z,-3.00
2018-03-22T04:43:55.149Z,-3.07
2018-03-22T04:44:55.171Z,-3.09
2018-03-22T04:45:55.195Z,-3.03
2018-03-22T04:46:55.216Z,-3.10
2018-03-22T04:47:55.240Z,-3.00
2018-03-22T04:48:55.262Z,-2.99
2018-03-22T04:49:55.286Z,-2.91
2018-03-22T04:50:55.312Z,-2.97
2018-03-22T04:51:55.330Z,-2.92
2018-03-22T04:52:55.356Z,-2.91
2018-03-22T04:53:55.376Z,-2.94
2018-03-22T04:54:55.398Z,-3.02
2018-03-22T04:55:55.424Z,-2.97
2018-03-22T04:56:55.443Z,-2.91
2018-03-22T04:57:55.466Z,-2.97
2018-03-22T04:58:55.489Z,-2.96
2018-03-22T04:59:55.510Z,-2.78
2018-03-22T05:00:55.533Z,-2.79
2018-03-22T05:01:55.556Z,-2.78
2018-03-22T05:02:55.578Z,-2.61
2018-03-22T05:03:55.600Z,-2.49
2018-03-22T05:04:55.623Z,-2.53
2018-03-22T05:05:55.646Z,-2.50
2018-03-22T05:06:55.680Z,-2.49
2018-03-22T05:07:55.691Z,-2.78
2018-03-22T05:08:55.713Z,-2.63
2018-03-22T05:09:55.736Z,-2.52
2018-03-22T05:10:55.756Z,-2.58
2018-03-22T05:11:55.780Z,-2.52
2018-03-22T05:12:55.803Z,-2.78
2018-03-22T05:13:55.826Z,-2.74
2018-03-22T05:14:55.849Z,-2.81
2018-03-22T05:15:55.870Z,-2.89
2018-03-22T05:16:55.895Z,-3.00
2018-03-22T05:17:55.915Z,-3.05
2018-03-22T05:18:55.938Z,-3.05
2018-03-22T05:19:55.958Z,-3.06
2018-03-22T05:20:55.982Z,-2.88
2018-03-22T05:21:56.005Z,-2.88
2018-03-22T05:22:56.027Z,-2.89
2018-03-22T05:23:56.050Z,-2.77
2018-03-22T05:24:56.073Z,-2.78
2018-03-22T05:25:56.096Z,-2.85
2018-03-22T05:26:56.117Z,-2.89
2018-03-22T05:27:56.139Z,-2.99
2018-03-22T05:28:56.216Z,-3.07
2018-03-22T05:29:56.188Z,-3.03
2018-03-22T05:30:56.206Z,-2.92
2018-03-22T05:31:56.230Z,-2.94
2018-03-22T05:32:56.253Z,-2.71
2018-03-22T05:33:56.275Z,-2.70
2018-03-22T05:34:56.297Z,-2.74
2018-03-22T05:35:56.319Z,-2.61
2018-03-22T05:36:56.343Z,-2.52
2018-03-22T05:37:56.365Z,-2.48
2018-03-22T05:38:56.391Z,-2.53
2018-03-22T05:39:56.455Z,-2.45
2018-03-22T05:40:56.433Z,-2.48
2018-03-22T05:41:56.456Z,-2.60
2018-03-22T05:42:56.477Z,-2.67
2018-03-22T05:43:56.503Z,-2.70
2018-03-22T05:44:56.522Z,-2.73
2018-03-22T05:45:56.547Z,-2.88
2018-03-22T05:46:56.567Z,-2.79
2018-03-22T05:47:56.590Z,-2.73
2018-03-22T05:48:56.613Z,-2.68
2018-03-22T05:49:56.636Z,-2.64
2018-03-22T05:50:56.661Z,-2.61
2018-03-22T05:51:56.680Z,-2.46
2018-03-22T05:52:56.705Z,-2.70
2018-03-22T05:53:56.726Z,-2.67
2018-03-22T05:54:56.753Z,-2.82
2018-03-22T05:55:56.774Z,-2.73
2018-03-22T05:56:56.794Z,-2.82
2018-03-22T05:57:56.816Z,-2.70
2018-03-22T05:58:56.838Z,-2.63
2018-03-22T05:59:56.865Z,-2.60
2018-03-22T06:00:56.884Z,-2.48
2018-03-22T06:01:56.907Z,-2.49
2018-03-22T06:02:56.938Z,-2.45
2018-03-22T06:03:56.952Z,-2.35
2018-03-22T06:04:56.977Z,-2.23
2018-03-22T06:05:56.997Z,-2.16
2018-03-22T06:06:57.020Z,-2.18
2018-03-22T06:07:57.043Z,-2.16
2018-03-22T06:08:57.066Z,-2.10
2018-03-22T06:09:57.090Z,-2.05
2018-03-22T06:10:57.112Z,-2.12
2018-03-22T06:11:57.135Z,-2.12
2018-03-22T06:12:57.158Z,-2.08
2018-03-22T06:13:57.182Z,-2.24
2018-03-22T06:14:57.204Z,-2.16
2018-03-22T06:15:57.227Z,-2.09
2018-03-22T06:16:57.250Z,-2.18
2018-03-22T06:17:57.274Z,-2.15
2018-03-22T06:18:57.295Z,-2.03
2018-03-22T06:19:57.320Z,-2.00
2018-03-22T06:20:57.345Z,-2.05
2018-03-22T06:21:57.367Z,-1.92
2018-03-22T06:22:57.400Z,-1.98
2018-03-22T06:23:57.413Z,-1.79
2018-03-22T06:24:57.443Z,-1.82
2018-03-22T06:25:57.460Z,-1.84
2018-03-22T06:26:57.488Z,-1.74
2018-03-22T06:27:57.507Z,-1.61
2018-03-22T06:28:57.531Z,-1.54
2018-03-22T06:29:57.554Z,-1.55
2018-03-22T06:30:57.577Z,-1.45
2018-03-22T06:31:57.601Z,-1.38
2018-03-22T06:32:57.625Z,-1.28
2018-03-22T06:33:57.649Z,-1.30
2018-03-22T06:34:57.672Z,-1.33
2018-03-22T06:35:57.696Z,-1.25
2018-03-22T06:36:57.720Z,-1.23
2018-03-22T06:37:57.744Z,-1.25
2018-03-22T06:38:57.766Z,-1.22
2018-03-22T06:39:57.791Z,-1.20
2018-03-22T06:40:57.815Z,-1.12
2018-03-22T06:41:57.839Z,-0.95
2018-03-22T06:42:57.862Z,-0.58
2018-03-22T06:43:57.886Z,-0.23
2018-03-22T06:44:57.910Z,-0.11
2018-03-22T06:45:57.933Z,-0.01
2018-03-22T06:46:57.957Z,0.17
2018-03-22T06:47:57.982Z,0.46
2018-03-22T06:48:58.005Z,0.61
2018-03-22T06:49:58.033Z,0.83
2018-03-22T06:50:58.057Z,0.91
2018-03-22T06:51:58.077Z,1.00
2018-03-22T06:52:58.103Z,1.12
2018-03-22T06:53:58.133Z,1.09
2018-03-22T06:54:58.151Z,1.24
2018-03-22T06:55:58.175Z,1.16
2018-03-22T06:56:58.224Z,1.30
2018-03-22T06:57:58.225Z,1.24
2018-03-22T06:58:58.248Z,1.34
2018-03-22T06:59:58.273Z,1.32
2018-03-22T07:00:58.298Z,1.47
2018-03-22T07:01:58.322Z,1.63
2018-03-22T07:02:58.347Z,1.76
2018-03-22T07:03:58.372Z,1.79
2018-03-22T07:04:58.397Z,1.66
2018-03-22T07:05:58.426Z,1.81
2018-03-22T07:06:58.487Z,1.83
2018-03-22T07:07:58.470Z,1.86
2018-03-22T07:08:58.496Z,1.80
2018-03-22T07:09:58.521Z,1.65
2018-03-22T07:10:58.546Z,1.81
2018-03-22T07:11:58.571Z,1.62
2018-03-22T07:12:58.596Z,1.68
2018-03-22T07:13:58.622Z,1.36
2018-03-22T07:14:58.646Z,1.47
2018-03-22T07:15:58.673Z,1.36
2018-03-22T07:16:58.698Z,1.42
2018-03-22T07:17:58.723Z,1.34
2018-03-22T07:18:58.748Z,1.24
2018-03-22T07:19:58.774Z,1.27
2018-03-22T07:20:58.799Z,1.18
2018-03-22T07:21:58.824Z,1.26
2018-03-22T07:22:58.850Z,1.30
2018-03-22T07:23:58.875Z,1.32
2018-03-22T07:24:58.902Z,1.36
2018-03-22T07:25:58.941Z,1.41
2018-03-22T07:26:58.956Z,1.37
2018-03-22T07:27:58.981Z,1.41
2018-03-22T07:28:59.007Z,1.45
2018-03-22T07:29:59.033Z,1.30
2018-03-22T07:30:59.057Z,1.36
2018-03-22T07:31:59.084Z,1.50
2018-03-22T07:32:59.111Z,1.58
2018-03-22T07:33:59.136Z,1.63
2018-03-22T07:34:59.163Z,1.66
2018-03-22T07:35:59.190Z,1.70
2018-03-22T07:36:59.216Z,1.77
2018-03-22T07:37:59.243Z,1.73
2018-03-22T07:38:59.275Z,1.83
2018-03-22T07:39:59.295Z,1.77
2018-03-22T07:40:59.321Z,1.86
2018-03-22T07:41:59.349Z,1.66
2018-03-22T07:42:59.375Z,1.66
2018-03-22T07:43:59.401Z,1.86
2018-03-22T07:44:59.427Z,2.09
2018-03-22T07:45:59.456Z,2.24
2018-03-22T07:46:59.482Z,2.41
2018-03-22T07:47:59.510Z,2.49
2018-03-22T07:48:59.537Z,2.67
2018-03-22T07:49:59.567Z,2.89
2018-03-22T07:50:59.591Z,3.10
2018-03-22T07:51:59.616Z,3.11
2018-03-22T07:52:59.643Z,3.20
2018-03-22T07:53:59.670Z,3.18
2018-03-22T07:54:59.695Z,3.31
2018-03-22T07:55:59.724Z,3.33
2018-03-22T07:56:59.751Z,3.39
2018-03-22T07:57:59.783Z,3.45
2018-03-22T07:58:59.830Z,3.43
2018-03-22T07:59:59.831Z,3.45
2018-03-22T08:00:59.858Z,3.60
2018-03-22T08:01:59.887Z,3.69
2018-03-22T08:02:59.917Z,3.73
2018-03-22T08:03:59.941Z,3.88
2018-03-22T08:04:59.968Z,3.90
2018-03-22T08:05:59.997Z,4.16
2018-03-22T08:07:00.023Z,4.32
2018-03-22T08:08:00.050Z,4.44
2018-03-22T08:09:00.078Z,4.51
2018-03-22T08:10:00.106Z,4.47
2018-03-22T08:11:00.134Z,4.66
2018-03-22T08:12:00.164Z,4.85
2018-03-22T08:13:00.186Z,5.07
2018-03-22T08:14:00.216Z,5.21
2018-03-22T08:15:00.242Z,5.39
2018-03-22T08:16:00.271Z,5.43
2018-03-22T08:17:00.298Z,5.40
2018-03-22T08:18:00.328Z,5.28
2018-03-22T08:19:00.356Z,5.35
2018-03-22T08:20:00.385Z,5.17
2018-03-22T08:21:00.412Z,5.02
2018-03-22T08:22:00.441Z,5.06
2018-03-22T08:23:00.468Z,5.06
2018-03-22T08:24:00.502Z,5.13
2018-03-22T08:25:00.526Z,5.02
2018-03-22T08:26:00.555Z,4.97
2018-03-22T08:27:00.585Z,5.10
2018-03-22T08:28:00.613Z,5.03
2018-03-22T08:29:00.642Z,4.99
2018-03-22T08:30:00.670Z,5.17
2018-03-22T08:31:00.700Z,5.35
2018-03-22T08:32:00.729Z,5.58
2018-03-22T08:33:00.757Z,5.63
2018-03-22T08:34:00.790Z,5.94
2018-03-22T08:35:00.866Z,6.01
2018-03-22T08:36:00.845Z,6.11
2018-03-22T08:37:00.877Z,6.27
2018-03-22T08:38:00.905Z,6.40
2018-03-22T08:39:00.937Z,6.40
2018-03-22T08:40:00.962Z,6.55
2018-03-22T08:41:00.993Z,6.77
2018-03-22T08:42:01.023Z,6.95
2018-03-22T08:43:01.052Z,7.24
2018-03-22T08:44:01.082Z,7.48
2018-03-22T08:45:01.112Z,7.68
2018-03-22T08:46:01.144Z,7.74
2018-03-22T08:47:01.194Z,7.74
2018-03-22T08:48:01.202Z,7.89
2018-03-22T08:49:01.232Z,7.87
2018-03-22T08:50:01.262Z,8.00
2018-03-22T08:51:01.291Z,7.95
2018-03-22T08:52:01.322Z,8.15
2018-03-22T08:53:01.353Z,8.19
2018-03-22T08:54:01.385Z,8.41
2018-03-22T08:55:01.415Z,8.38
2018-03-22T08:56:01.510Z,8.68
2018-03-22T08:57:01.483Z,9.01
2018-03-22T08:58:01.507Z,9.14
2018-03-22T08:59:01.540Z,9.10
2018-03-22T09:00:01.571Z,9.05
2018-03-22T09:01:01.603Z,8.77
2018-03-22T09:02:01.696Z,8.53
2018-03-22T09:03:01.665Z,8.05
2018-03-22T09:04:01.700Z,8.11
2018-03-22T09:05:01.756Z,8.45
2018-03-22T09:06:01.761Z,8.68
2018-03-22T09:07:01.793Z,8.94
2018-03-22T09:08:01.826Z,9.24
2018-03-22T09:09:01.859Z,9.81
2018-03-22T09:10:01.891Z,10.42
2018-03-22T09:11:01.925Z,10.85
2018-03-22T09:12:02.012Z,11.43
2018-03-22T09:13:01.987Z,12.01
2018-03-22T09:14:02.020Z,12.41
2018-03-22T09:15:02.059Z,12.64
2018-03-22T09:16:02.086Z,13.08
2018-03-22T09:17:02.119Z,13.52
2018-03-22T09:18:02.155Z,14.22
2018-03-22T09:19:02.187Z,14.69
2018-03-22T09:20:02.220Z,15.13
2018-03-22T09:21:02.257Z,15.90
2018-03-22T09:22:02.290Z,16.30
2018-03-22T09:23:02.325Z,16.27
2018-03-22T09:24:02.361Z,16.38
2018-03-22T09:25:02.396Z,15.83
2018-03-22T09:26:02.431Z,15.35
2018-03-22T09:27:02.468Z,15.59
2018-03-22T09:28:02.503Z,15.54
2018-03-22T09:29:02.541Z,15.92
2018-03-22T09:30:02.578Z,14.68
2018-03-22T09:31:02.614Z,14.14
2018-03-22T09:32:02.650Z,14.25
2018-03-22T09:33:02.690Z,14.32
2018-03-22T09:34:02.726Z,15.31
2018-03-22T09:35:02.763Z,16.05
2018-03-22T09:36:02.800Z,16.61
2018-03-22T09:37:02.837Z,17.08
2018-03-22T09:38:02.876Z,16.53
2018-03-22T09:39:02.913Z,17.37
2018-03-22T09:40:02.953Z,17.31
2018-03-22T09:41:02.990Z,17.46
2018-03-22T09:42:03.028Z,16.70
2018-03-22T09:43:03.068Z,16.57
2018-03-22T09:44:03.107Z,16.83
2018-03-22T09:45:03.146Z,17.18
2018-03-22T09:46:03.185Z,16.35
2018-03-22T09:47:03.229Z,15.01
2018-03-22T09:48:03.263Z,14.94
2018-03-22T09:49:03.303Z,14.17
2018-03-22T09:50:03.345Z,14.03
2018-03-22T09:51:03.380Z,13.70
2018-03-22T09:52:03.420Z,14.09
2018-03-22T09:53:03.461Z,14.04
2018-03-22T09:54:03.499Z,13.85
2018-03-22T09:55:03.537Z,14.88
2018-03-22T09:56:03.576Z,15.57
2018-03-22T09:57:03.651Z,15.34
2018-03-22T09:58:03.655Z,16.07
2018-03-22T09:59:03.693Z,16.01
2018-03-22T10:00:03.735Z,15.47
2018-03-22T10:01:03.777Z,15.13
2018-03-22T10:02:03.811Z,14.52
2018-03-22T10:03:03.850Z,12.82
2018-03-22T10:04:03.894Z,12.37
2018-03-22T10:05:03.930Z,12.19
2018-03-22T10:06:03.969Z,11.79
2018-03-22T10:07:04.006Z,11.54
2018-03-22T10:08:04.046Z,11.07
2018-03-22T10:09:04.083Z,11.17
2018-03-22T10:10:04.121Z,11.06
2018-03-22T10:11:04.159Z,11.09
2018-03-22T10:12:04.198Z,11.17
2018-03-22T10:13:04.236Z,10.91
2018-03-22T10:14:04.272Z,10.94
2018-03-22T10:15:04.309Z,10.88
2018-03-22T10:16:04.346Z,10.74
2018-03-22T10:17:04.383Z,10.85
2018-03-22T10:18:04.420Z,10.67
2018-03-22T10:19:04.457Z,10.60
2018-03-22T10:20:04.493Z,10.14
2018-03-22T10:21:04.529Z,9.74
2018-03-22T10:22:04.565Z,9.72
2018-03-22T10:23:04.601Z,10.05
2018-03-22T10:24:04.636Z,10.20
2018-03-22T10:25:04.677Z,10.30
2018-03-22T10:26:04.710Z,9.97
2018-03-22T10:27:04.743Z,9.93
2018-03-22T10:28:04.779Z,9.87
2018-03-22T10:29:04.813Z,10.22
2018-03-22T10:30:04.850Z,10.23
2018-03-22T10:31:04.886Z,10.20
2018-03-22T10:32:04.922Z,10.36
2018-03-22T10:33:04.955Z,10.40
2018-03-22T10:34:04.990Z,10.60
2018-03-22T10:35:05.024Z,10.42
2018-03-22T10:36:05.059Z,10.44
2018-03-22T10:37:05.094Z,11.33
2018-03-22T10:38:05.129Z,11.52
2018-03-22T10:39:05.163Z,11.69
2018-03-22T10:40:05.200Z,11.79
2018-03-22T10:41:05.234Z,12.38
2018-03-22T10:42:05.268Z,13.03
2018-03-22T10:43:05.308Z,13.11
2018-03-22T10:44:05.349Z,13.42
2018-03-22T10:45:05.376Z,13.38
2018-03-22T10:46:05.411Z,13.28
2018-03-22T10:47:05.448Z,13.30
2018-03-22T10:48:05.482Z,12.50
2018-03-22T10:49:05.519Z,12.13
2018-03-22T10:50:05.560Z,11.91
2018-03-22T10:51:05.596Z,11.35
2018-03-22T10:52:05.626Z,11.02
2018-03-22T10:53:05.663Z,11.32
2018-03-22T10:54:05.700Z,11.64
2018-03-22T10:55:05.737Z,11.78
2018-03-22T10:56:05.770Z,12.13
2018-03-22T10:57:05.809Z,12.12
2018-03-22T10:58:05.844Z,12.24
2018-03-22T10:59:05.878Z,13.11
2018-03-22T11:00:05.915Z,12.92
2018-03-22T11:01:05.951Z,12.93
2018-03-22T11:02:05.989Z,13.12
2018-03-22T11:03:06.022Z,13.51
2018-03-22T11:04:06.060Z,13.23
2018-03-22T11:05:06.099Z,14.60
2018-03-22T11:06:06.177Z,14.81
2018-03-22T11:07:06.169Z,15.27
2018-03-22T11:08:06.206Z,15.62
2018-03-22T11:09:06.246Z,15.75
2018-03-22T11:10:06.281Z,15.59
2018-03-22T11:11:06.320Z,15.23
2018-03-22T11:12:06.359Z,15.38
2018-03-22T11:13:06.397Z,15.02
2018-03-22T11:14:06.436Z,15.14
2018-03-22T11:15:06.474Z,14.92
2018-03-22T11:16:06.515Z,15.06
2018-03-22T11:17:06.552Z,16.20
2018-03-22T11:18:06.592Z,16.09
2018-03-22T11:19:06.630Z,16.15
2018-03-22T11:20:06.669Z,15.38
2018-03-22T11:21:06.710Z,15.97
2018-03-22T11:22:06.751Z,16.17
2018-03-22T11:23:06.786Z,16.45
2018-03-22T11:24:06.828Z,17.36
2018-03-22T11:25:06.869Z,16.73
2018-03-22T11:26:06.910Z,16.25
2018-03-22T11:27:06.949Z,16.27
2018-03-22T11:28:06.990Z,16.14
2018-03-22T11:29:07.031Z,16.15
2018-03-22T11:30:07.072Z,14.64
2018-03-22T11:31:07.112Z,15.56
2018-03-22T11:32:07.153Z,16.11
2018-03-22T11:33:07.193Z,15.32
2018-03-22T11:34:07.234Z,15.11
2018-03-22T11:35:07.274Z,14.75
2018-03-22T11:36:07.314Z,14.28
2018-03-22T11:37:07.354Z,13.75
2018-03-22T11:38:07.394Z,13.96
2018-03-22T11:39:07.434Z,13.77
2018-03-22T11:40:07.475Z,12.90
2018-03-22T11:41:07.515Z,12.53
2018-03-22T11:42:07.555Z,12.49
2018-03-22T11:43:07.646Z,12.24
2018-03-22T11:44:07.634Z,11.73
2018-03-22T11:45:07.673Z,11.51
2018-03-22T11:46:07.714Z,11.24
2018-03-22T11:47:07.750Z,10.85
2018-03-22T11:48:07.788Z,10.34
2018-03-22T11:49:07.825Z,10.23
2018-03-22T11:50:07.864Z,10.04
2018-03-22T11:51:07.899Z,10.15
2018-03-22T11:52:07.937Z,10.22
2018-03-22T11:53:07.975Z,10.27
2018-03-22T11:54:08.010Z,10.27
2018-03-22T11:55:08.047Z,10.38
2018-03-22T11:56:08.082Z,9.86
2018-03-22T11:57:08.119Z,9.50
2018-03-22T11:58:08.154Z,9.29
2018-03-22T11:59:08.191Z,9.32
2018-03-22T12:00:08.224Z,9.21
2018-03-22T12:01:08.260Z,9.31
2018-03-22T12:02:08.295Z,9.50
2018-03-22T12:03:08.329Z,9.42
2018-03-22T12:04:08.363Z,9.26
2018-03-22T12:05:08.398Z,9.33
2018-03-22T12:06:08.432Z,8.91
2018-03-22T12:07:08.465Z,8.66
2018-03-22T12:08:08.503Z,8.66
2018-03-22T12:09:08.534Z,8.66
2018-03-22T12:10:08.574Z,8.94
2018-03-22T12:11:08.640Z,9.02
2018-03-22T12:12:08.633Z,9.32
2018-03-22T12:13:08.667Z,9.42
2018-03-22T12:14:08.700Z,9.68
2018-03-22T12:15:08.733Z,9.54
2018-03-22T12:16:08.766Z,9.43
2018-03-22T12:17:08.799Z,9.39
2018-03-22T12:18:08.831Z,9.32
2018-03-22T12:19:08.864Z,9.29
2018-03-22T12:20:08.897Z,9.40
2018-03-22T12:21:08.929Z,9.84
2018-03-22T12:22:08.965Z,9.56
2018-03-22T12:23:08.996Z,9.72
2018-03-22T12:24:09.028Z,9.81
2018-03-22T12:25:09.061Z,9.66
2018-03-22T12:26:09.094Z,9.47
2018-03-22T12:27:09.130Z,8.92
2018-03-22T12:28:09.159Z,8.68
2018-03-22T12:29:09.192Z,8.28
2018-03-22T12:30:09.229Z,8.05
2018-03-22T12:31:09.256Z,7.89
2018-03-22T12:32:09.293Z,7.64
2018-03-22T12:33:09.320Z,7.28
2018-03-22T12:34:09.355Z,7.20
2018-03-22T12:35:09.385Z,7.16
2018-03-22T12:36:09.419Z,7.42
2018-03-22T12:37:09.449Z,7.57
2018-03-22T12:38:09.482Z,7.74
2018-03-22T12:39:09.514Z,7.93
2018-03-22T12:40:09.544Z,8.18
2018-03-22T12:41:09.576Z,8.22
2018-03-22T12:42:09.608Z,8.19
2018-03-22T12:43:09.643Z,8.22
2018-03-22T12:44:09.723Z,8.11
2018-03-22T12:45:09.701Z,7.93
2018-03-22T12:46:09.735Z,7.95
2018-03-22T12:47:09.764Z,7.75
2018-03-22T12:48:09.795Z,7.80
2018-03-22T12:49:09.827Z,7.71
2018-03-22T12:50:09.861Z,7.60
2018-03-22T12:51:09.888Z,7.43
2018-03-22T12:52:09.919Z,7.16
2018-03-22T12:53:09.955Z,7.27
2018-03-22T12:54:09.984Z,7.21
2018-03-22T12:55:10.019Z,7.16
2018-03-22T12:56:10.044Z,7.17
2018-03-22T12:57:10.076Z,7.13
2018-03-22T12:58:10.107Z,7.28
2018-03-22T12:59:10.136Z,7.25
2018-03-22T13:00:10.167Z,7.03